sensor_id;sensor_type;location;lat;lon;timestamp;P1;durP1;ratioP1;P2;durP2;ratioP2
44832;SDS011;30569;51.252;9.830;2022-07-04T00:00:21;5.70;;;1.70;;
44832;SDS011;30569;51.252;9.830;2022-07-04T00:02:47;3.20;;;1.60;;
44832;SDS011;30569;51.252;9.830;2022-07-04T00:05:13;8.23;;;1.80;;
44832;SDS011;30569;51.252;9.830;2022-07-04T00:07:40;4.35;;;1.70;;
44832;SDS011;30569;51.252;9.830;2022-07-04T00:10:10;3.70;;;1.60;;
44832;SDS011;30569;51.252;9.830;2022-07-04T00:12:37;4.80;;;1.67;;
44832;SDS011;30569;51.252;9.830;2022-07-04T00:15:03;4.60;;;1.70;;
44832;SDS011;30569;51.252;9.830;2022-07-04T00:17:30;7.70;;;1.67;;
44832;SDS011;30569;51.252;9.830;2022-07-04T00:19:55;5.72;;;2.55;;
44832;SDS011;30569;51.252;9.830;2022-07-04T00:22:21;5.53;;;1.67;;
44832;SDS011;30569;51.252;9.830;2022-07-04T00:24:47;5.90;;;1.70;;
44832;SDS011;30569;51.252;9.830;2022-07-04T00:27:12;3.63;;;1.65;;
44832;SDS011;30569;51.252;9.830;2022-07-04T00:29:38;5.50;;;1.77;;
44832;SDS011;30569;51.252;9.830;2022-07-04T00:32:04;4.00;;;1.92;;
44832;SDS011;30569;51.252;9.830;2022-07-04T00:34:30;5.25;;;1.85;;
44832;SDS011;30569;51.252;9.830;2022-07-04T00:36:56;4.20;;;1.95;;
44832;SDS011;30569;51.252;9.830;2022-07-04T00:39:21;6.47;;;1.85;;
44832;SDS011;30569;51.252;9.830;2022-07-04T00:41:47;7.70;;;1.98;;
44832;SDS011;30569;51.252;9.830;2022-07-04T00:44:13;3.83;;;1.70;;
44832;SDS011;30569;51.252;9.830;2022-07-04T00:46:40;4.88;;;1.70;;
44832;SDS011;30569;51.252;9.830;2022-07-04T00:49:07;4.10;;;1.58;;
44832;SDS011;30569;51.252;9.830;2022-07-04T00:51:34;5.07;;;2.10;;
44832;SDS011;30569;51.252;9.830;2022-07-04T00:54:01;5.82;;;1.80;;
44832;SDS011;30569;51.252;9.830;2022-07-04T00:56:27;5.40;;;1.90;;
44832;SDS011;30569;51.252;9.830;2022-07-04T00:58:53;5.57;;;2.25;;
44832;SDS011;30569;51.252;9.830;2022-07-04T01:01:19;9.35;;;1.80;;
44832;SDS011;30569;51.252;9.830;2022-07-04T01:03:45;6.13;;;1.70;;
44832;SDS011;30569;51.252;9.830;2022-07-04T01:06:11;6.60;;;1.90;;
44832;SDS011;30569;51.252;9.830;2022-07-04T01:08:39;4.32;;;1.98;;
44832;SDS011;30569;51.252;9.830;2022-07-04T01:11:06;4.53;;;2.00;;
44832;SDS011;30569;51.252;9.830;2022-07-04T01:13:32;5.60;;;1.70;;
44832;SDS011;30569;51.252;9.830;2022-07-04T01:15:58;5.20;;;1.95;;
44832;SDS011;30569;51.252;9.830;2022-07-04T01:18:24;7.35;;;1.73;;
44832;SDS011;30569;51.252;9.830;2022-07-04T01:20:49;4.90;;;2.40;;
44832;SDS011;30569;51.252;9.830;2022-07-04T01:23:15;3.33;;;1.70;;
44832;SDS011;30569;51.252;9.830;2022-07-04T01:25:42;4.18;;;1.88;;
44832;SDS011;30569;51.252;9.830;2022-07-04T01:28:08;3.67;;;1.92;;
44832;SDS011;30569;51.252;9.830;2022-07-04T01:30:34;5.38;;;1.90;;
44832;SDS011;30569;51.252;9.830;2022-07-04T01:33:01;5.15;;;1.65;;
44832;SDS011;30569;51.252;9.830;2022-07-04T01:35:27;6.53;;;1.80;;
44832;SDS011;30569;51.252;9.830;2022-07-04T01:37:53;3.45;;;1.60;;
44832;SDS011;30569;51.252;9.830;2022-07-04T01:40:18;3.45;;;1.50;;
44832;SDS011;30569;51.252;9.830;2022-07-04T01:42:44;4.22;;;1.80;;
44832;SDS011;30569;51.252;9.830;2022-07-04T01:45:10;3.97;;;1.92;;
44832;SDS011;30569;51.252;9.830;2022-07-04T01:47:36;5.63;;;2.10;;
44832;SDS011;30569;51.252;9.830;2022-07-04T01:50:03;5.57;;;1.85;;
44832;SDS011;30569;51.252;9.830;2022-07-04T01:52:30;10.25;;;1.80;;
44832;SDS011;30569;51.252;9.830;2022-07-04T01:54:56;5.05;;;1.70;;
44832;SDS011;30569;51.252;9.830;2022-07-04T01:57:22;6.22;;;1.88;;
44832;SDS011;30569;51.252;9.830;2022-07-04T01:59:47;4.55;;;2.05;;
44832;SDS011;30569;51.252;9.830;2022-07-04T02:02:31;5.72;;;2.05;;
44832;SDS011;30569;51.252;9.830;2022-07-04T02:04:57;5.15;;;1.80;;
44832;SDS011;30569;51.252;9.830;2022-07-04T02:07:22;4.63;;;1.80;;
44832;SDS011;30569;51.252;9.830;2022-07-04T02:09:48;6.57;;;2.10;;
44832;SDS011;30569;51.252;9.830;2022-07-04T02:12:14;5.25;;;1.80;;
44832;SDS011;30569;51.252;9.830;2022-07-04T02:14:58;4.45;;;2.20;;
44832;SDS011;30569;51.252;9.830;2022-07-04T02:17:24;3.45;;;1.70;;
44832;SDS011;30569;51.252;9.830;2022-07-04T02:19:50;4.85;;;1.73;;
44832;SDS011;30569;51.252;9.830;2022-07-04T02:22:15;7.43;;;1.60;;
44832;SDS011;30569;51.252;9.830;2022-07-04T02:24:41;5.47;;;2.33;;
44832;SDS011;30569;51.252;9.830;2022-07-04T02:27:06;4.95;;;2.03;;
44832;SDS011;30569;51.252;9.830;2022-07-04T02:29:32;3.67;;;1.90;;
44832;SDS011;30569;51.252;9.830;2022-07-04T02:31:58;3.35;;;1.67;;
44832;SDS011;30569;51.252;9.830;2022-07-04T02:34:23;4.75;;;1.88;;
44832;SDS011;30569;51.252;9.830;2022-07-04T02:36:49;5.72;;;1.80;;
44832;SDS011;30569;51.252;9.830;2022-07-04T02:39:15;6.05;;;1.80;;
44832;SDS011;30569;51.252;9.830;2022-07-04T02:41:41;5.03;;;2.10;;
44832;SDS011;30569;51.252;9.830;2022-07-04T02:44:07;5.53;;;2.10;;
44832;SDS011;30569;51.252;9.830;2022-07-04T02:46:32;6.90;;;2.22;;
44832;SDS011;30569;51.252;9.830;2022-07-04T02:48:58;4.05;;;2.10;;
44832;SDS011;30569;51.252;9.830;2022-07-04T02:51:24;4.28;;;2.05;;
44832;SDS011;30569;51.252;9.830;2022-07-04T02:53:50;3.80;;;2.13;;
44832;SDS011;30569;51.252;9.830;2022-07-04T02:56:16;4.68;;;2.10;;
44832;SDS011;30569;51.252;9.830;2022-07-04T02:58:41;4.13;;;2.08;;
44832;SDS011;30569;51.252;9.830;2022-07-04T03:01:07;4.97;;;2.47;;
44832;SDS011;30569;51.252;9.830;2022-07-04T03:03:32;5.68;;;2.10;;
44832;SDS011;30569;51.252;9.830;2022-07-04T03:05:58;3.72;;;2.00;;
44832;SDS011;30569;51.252;9.830;2022-07-04T03:08:24;5.82;;;2.13;;
44832;SDS011;30569;51.252;9.830;2022-07-04T03:10:49;5.25;;;2.20;;
44832;SDS011;30569;51.252;9.830;2022-07-04T03:13:18;4.75;;;2.00;;
44832;SDS011;30569;51.252;9.830;2022-07-04T03:15:44;4.85;;;2.15;;
44832;SDS011;30569;51.252;9.830;2022-07-04T03:18:10;7.38;;;2.38;;
44832;SDS011;30569;51.252;9.830;2022-07-04T03:20:36;4.60;;;2.00;;
44832;SDS011;30569;51.252;9.830;2022-07-04T03:23:02;4.93;;;2.28;;
44832;SDS011;30569;51.252;9.830;2022-07-04T03:25:27;5.57;;;2.10;;
44832;SDS011;30569;51.252;9.830;2022-07-04T03:27:53;3.90;;;2.33;;
44832;SDS011;30569;51.252;9.830;2022-07-04T03:30:18;9.45;;;2.15;;
44832;SDS011;30569;51.252;9.830;2022-07-04T03:32:44;7.18;;;2.30;;
44832;SDS011;30569;51.252;9.830;2022-07-04T03:35:09;6.72;;;2.55;;
44832;SDS011;30569;51.252;9.830;2022-07-04T03:37:35;6.07;;;2.20;;
44832;SDS011;30569;51.252;9.830;2022-07-04T03:40:00;5.57;;;2.20;;
44832;SDS011;30569;51.252;9.830;2022-07-04T03:42:26;3.78;;;1.98;;
44832;SDS011;30569;51.252;9.830;2022-07-04T03:44:51;8.80;;;2.47;;
44832;SDS011;30569;51.252;9.830;2022-07-04T03:47:17;8.63;;;2.17;;
44832;SDS011;30569;51.252;9.830;2022-07-04T03:49:43;5.25;;;2.42;;
44832;SDS011;30569;51.252;9.830;2022-07-04T03:52:08;5.28;;;2.30;;
44832;SDS011;30569;51.252;9.830;2022-07-04T03:54:34;3.88;;;2.03;;
44832;SDS011;30569;51.252;9.830;2022-07-04T03:56:59;4.72;;;2.40;;
44832;SDS011;30569;51.252;9.830;2022-07-04T03:59:25;3.72;;;2.40;;
44832;SDS011;30569;51.252;9.830;2022-07-04T04:01:51;5.15;;;2.20;;
44832;SDS011;30569;51.252;9.830;2022-07-04T04:04:16;4.70;;;2.33;;
44832;SDS011;30569;51.252;9.830;2022-07-04T04:07:00;5.57;;;2.30;;
44832;SDS011;30569;51.252;9.830;2022-07-04T04:09:26;5.97;;;2.20;;
44832;SDS011;30569;51.252;9.830;2022-07-04T04:11:51;4.53;;;2.15;;
44832;SDS011;30569;51.252;9.830;2022-07-04T04:14:17;5.65;;;2.58;;
44832;SDS011;30569;51.252;9.830;2022-07-04T04:16:43;4.57;;;2.15;;
44832;SDS011;30569;51.252;9.830;2022-07-04T04:19:09;5.72;;;2.40;;
44832;SDS011;30569;51.252;9.830;2022-07-04T04:21:36;4.32;;;2.20;;
44832;SDS011;30569;51.252;9.830;2022-07-04T04:24:02;4.75;;;2.20;;
44832;SDS011;30569;51.252;9.830;2022-07-04T04:26:28;4.57;;;2.60;;
44832;SDS011;30569;51.252;9.830;2022-07-04T04:28:54;5.10;;;2.90;;
44832;SDS011;30569;51.252;9.830;2022-07-04T04:31:19;4.43;;;2.60;;
44832;SDS011;30569;51.252;9.830;2022-07-04T04:33:45;5.85;;;2.40;;
44832;SDS011;30569;51.252;9.830;2022-07-04T04:36:11;9.60;;;2.53;;
44832;SDS011;30569;51.252;9.830;2022-07-04T04:38:36;6.43;;;2.58;;
44832;SDS011;30569;51.252;9.830;2022-07-04T04:41:02;6.43;;;2.65;;
44832;SDS011;30569;51.252;9.830;2022-07-04T04:43:28;5.13;;;2.90;;
44832;SDS011;30569;51.252;9.830;2022-07-04T04:45:53;5.07;;;2.63;;
44832;SDS011;30569;51.252;9.830;2022-07-04T04:48:19;6.70;;;3.00;;
44832;SDS011;30569;51.252;9.830;2022-07-04T04:50:45;6.47;;;2.70;;
44832;SDS011;30569;51.252;9.830;2022-07-04T04:53:10;5.80;;;3.08;;
44832;SDS011;30569;51.252;9.830;2022-07-04T04:55:36;6.80;;;2.60;;
44832;SDS011;30569;51.252;9.830;2022-07-04T04:58:02;4.45;;;2.67;;
44832;SDS011;30569;51.252;9.830;2022-07-04T05:00:27;4.80;;;3.08;;
44832;SDS011;30569;51.252;9.830;2022-07-04T05:02:53;5.90;;;3.20;;
44832;SDS011;30569;51.252;9.830;2022-07-04T05:05:19;6.32;;;2.92;;
44832;SDS011;30569;51.252;9.830;2022-07-04T05:07:44;5.45;;;2.97;;
44832;SDS011;30569;51.252;9.830;2022-07-04T05:10:10;6.95;;;2.95;;
44832;SDS011;30569;51.252;9.830;2022-07-04T05:12:36;5.88;;;3.42;;
44832;SDS011;30569;51.252;9.830;2022-07-04T05:15:01;6.55;;;2.97;;
44832;SDS011;30569;51.252;9.830;2022-07-04T05:17:27;4.15;;;2.45;;
44832;SDS011;30569;51.252;9.830;2022-07-04T05:19:53;5.45;;;2.88;;
44832;SDS011;30569;51.252;9.830;2022-07-04T05:22:19;5.88;;;3.20;;
44832;SDS011;30569;51.252;9.830;2022-07-04T05:24:44;6.90;;;2.75;;
44832;SDS011;30569;51.252;9.830;2022-07-04T05:27:10;6.75;;;3.08;;
44832;SDS011;30569;51.252;9.830;2022-07-04T05:29:35;9.98;;;2.63;;
44832;SDS011;30569;51.252;9.830;2022-07-04T05:32:02;4.68;;;2.22;;
44832;SDS011;30569;51.252;9.830;2022-07-04T05:34:29;6.07;;;2.50;;
44832;SDS011;30569;51.252;9.830;2022-07-04T05:36:54;7.57;;;2.22;;
44832;SDS011;30569;51.252;9.830;2022-07-04T05:39:21;7.85;;;2.47;;
44832;SDS011;30569;51.252;9.830;2022-07-04T05:41:47;15.68;;;3.15;;
44832;SDS011;30569;51.252;9.830;2022-07-04T05:44:12;7.22;;;2.53;;
44832;SDS011;30569;51.252;9.830;2022-07-04T05:46:38;5.13;;;2.30;;
44832;SDS011;30569;51.252;9.830;2022-07-04T05:49:03;5.18;;;2.17;;
44832;SDS011;30569;51.252;9.830;2022-07-04T05:51:29;4.45;;;2.20;;
44832;SDS011;30569;51.252;9.830;2022-07-04T05:53:56;6.05;;;2.20;;
44832;SDS011;30569;51.252;9.830;2022-07-04T05:56:21;4.65;;;2.30;;
44832;SDS011;30569;51.252;9.830;2022-07-04T05:58:48;7.10;;;2.20;;
44832;SDS011;30569;51.252;9.830;2022-07-04T06:01:13;10.18;;;2.42;;
44832;SDS011;30569;51.252;9.830;2022-07-04T06:03:39;6.50;;;2.45;;
44832;SDS011;30569;51.252;9.830;2022-07-04T06:06:05;7.13;;;2.13;;
44832;SDS011;30569;51.252;9.830;2022-07-04T06:08:31;8.38;;;2.33;;
44832;SDS011;30569;51.252;9.830;2022-07-04T06:10:57;7.47;;;2.10;;
44832;SDS011;30569;51.252;9.830;2022-07-04T06:13:22;9.50;;;2.40;;
44832;SDS011;30569;51.252;9.830;2022-07-04T06:15:48;6.25;;;1.85;;
44832;SDS011;30569;51.252;9.830;2022-07-04T06:18:14;5.07;;;1.83;;
44832;SDS011;30569;51.252;9.830;2022-07-04T06:20:40;4.40;;;1.75;;
44832;SDS011;30569;51.252;9.830;2022-07-04T06:23:06;5.13;;;2.05;;
44832;SDS011;30569;51.252;9.830;2022-07-04T06:25:32;4.32;;;1.55;;
44832;SDS011;30569;51.252;9.830;2022-07-04T06:27:58;4.15;;;1.70;;
44832;SDS011;30569;51.252;9.830;2022-07-04T06:30:24;4.90;;;1.80;;
44832;SDS011;30569;51.252;9.830;2022-07-04T06:32:50;4.97;;;2.22;;
44832;SDS011;30569;51.252;9.830;2022-07-04T06:35:18;5.28;;;1.85;;
44832;SDS011;30569;51.252;9.830;2022-07-04T06:38:06;3.90;;;1.77;;
44832;SDS011;30569;51.252;9.830;2022-07-04T06:40:33;5.32;;;1.50;;
44832;SDS011;30569;51.252;9.830;2022-07-04T06:42:59;3.90;;;1.67;;
44832;SDS011;30569;51.252;9.830;2022-07-04T06:45:25;4.13;;;1.60;;
44832;SDS011;30569;51.252;9.830;2022-07-04T06:47:51;3.80;;;1.70;;
44832;SDS011;30569;51.252;9.830;2022-07-04T06:50:17;6.53;;;1.50;;
44832;SDS011;30569;51.252;9.830;2022-07-04T06:52:42;3.97;;;1.50;;
44832;SDS011;30569;51.252;9.830;2022-07-04T06:55:08;4.15;;;1.40;;
44832;SDS011;30569;51.252;9.830;2022-07-04T06:57:34;5.93;;;1.45;;
44832;SDS011;30569;51.252;9.830;2022-07-04T07:00:00;3.63;;;1.38;;
44832;SDS011;30569;51.252;9.830;2022-07-04T07:02:26;8.25;;;1.60;;
44832;SDS011;30569;51.252;9.830;2022-07-04T07:04:54;9.27;;;1.52;;
44832;SDS011;30569;51.252;9.830;2022-07-04T07:07:21;4.30;;;1.60;;
44832;SDS011;30569;51.252;9.830;2022-07-04T07:09:46;4.65;;;1.77;;
44832;SDS011;30569;51.252;9.830;2022-07-04T07:12:12;5.25;;;1.50;;
44832;SDS011;30569;51.252;9.830;2022-07-04T07:14:37;5.45;;;1.55;;
44832;SDS011;30569;51.252;9.830;2022-07-04T07:17:03;3.42;;;1.38;;
44832;SDS011;30569;51.252;9.830;2022-07-04T07:19:28;6.53;;;1.58;;
44832;SDS011;30569;51.252;9.830;2022-07-04T07:21:54;4.30;;;1.13;;
44832;SDS011;30569;51.252;9.830;2022-07-04T07:24:19;4.07;;;1.20;;
44832;SDS011;30569;51.252;9.830;2022-07-04T07:26:45;2.40;;;1.00;;
44832;SDS011;30569;51.252;9.830;2022-07-04T07:29:11;4.80;;;1.15;;
44832;SDS011;30569;51.252;9.830;2022-07-04T07:31:36;4.05;;;1.30;;
44832;SDS011;30569;51.252;9.830;2022-07-04T07:34:02;2.53;;;0.90;;
44832;SDS011;30569;51.252;9.830;2022-07-04T07:36:28;2.47;;;1.00;;
44832;SDS011;30569;51.252;9.830;2022-07-04T07:38:53;4.55;;;1.10;;
44832;SDS011;30569;51.252;9.830;2022-07-04T07:41:21;5.10;;;1.00;;
44832;SDS011;30569;51.252;9.830;2022-07-04T07:43:46;2.60;;;1.10;;
44832;SDS011;30569;51.252;9.830;2022-07-04T07:46:12;3.83;;;1.30;;
44832;SDS011;30569;51.252;9.830;2022-07-04T07:48:37;2.58;;;0.95;;
44832;SDS011;30569;51.252;9.830;2022-07-04T07:51:03;5.05;;;1.08;;
44832;SDS011;30569;51.252;9.830;2022-07-04T07:53:28;4.15;;;1.00;;
44832;SDS011;30569;51.252;9.830;2022-07-04T07:55:54;4.22;;;1.20;;
44832;SDS011;30569;51.252;9.830;2022-07-04T07:58:19;3.28;;;1.10;;
44832;SDS011;30569;51.252;9.830;2022-07-04T08:00:45;3.10;;;1.00;;
44832;SDS011;30569;51.252;9.830;2022-07-04T08:03:12;3.13;;;0.98;;
44832;SDS011;30569;51.252;9.830;2022-07-04T08:05:56;6.03;;;1.33;;
44832;SDS011;30569;51.252;9.830;2022-07-04T08:08:22;3.60;;;1.00;;
44832;SDS011;30569;51.252;9.830;2022-07-04T08:10:49;4.35;;;1.02;;
44832;SDS011;30569;51.252;9.830;2022-07-04T08:13:14;3.47;;;1.42;;
44832;SDS011;30569;51.252;9.830;2022-07-04T08:15:40;3.15;;;1.25;;
44832;SDS011;30569;51.252;9.830;2022-07-04T08:18:06;4.07;;;1.20;;
44832;SDS011;30569;51.252;9.830;2022-07-04T08:20:31;4.88;;;1.35;;
44832;SDS011;30569;51.252;9.830;2022-07-04T08:22:57;7.35;;;1.17;;
44832;SDS011;30569;51.252;9.830;2022-07-04T08:25:22;4.70;;;1.27;;
44832;SDS011;30569;51.252;9.830;2022-07-04T08:27:48;3.67;;;1.20;;
44832;SDS011;30569;51.252;9.830;2022-07-04T08:30:14;4.60;;;1.25;;
44832;SDS011;30569;51.252;9.830;2022-07-04T08:32:39;3.65;;;1.02;;
44832;SDS011;30569;51.252;9.830;2022-07-04T08:35:05;3.25;;;1.02;;
44832;SDS011;30569;51.252;9.830;2022-07-04T08:37:31;4.60;;;1.02;;
44832;SDS011;30569;51.252;9.830;2022-07-04T08:39:57;3.05;;;1.00;;
44832;SDS011;30569;51.252;9.830;2022-07-04T08:42:23;5.80;;;1.23;;
44832;SDS011;30569;51.252;9.830;2022-07-04T08:44:49;4.82;;;1.00;;
44832;SDS011;30569;51.252;9.830;2022-07-04T08:47:18;2.75;;;0.95;;
44832;SDS011;30569;51.252;9.830;2022-07-04T08:49:51;3.35;;;1.00;;
44832;SDS011;30569;51.252;9.830;2022-07-04T08:52:30;4.95;;;1.20;;
44832;SDS011;30569;51.252;9.830;2022-07-04T08:55:01;6.45;;;1.17;;
44832;SDS011;30569;51.252;9.830;2022-07-04T08:57:46;3.40;;;0.80;;
44832;SDS011;30569;51.252;9.830;2022-07-04T09:00:30;6.18;;;1.08;;
44832;SDS011;30569;51.252;9.830;2022-07-04T09:02:56;3.25;;;0.82;;
44832;SDS011;30569;51.252;9.830;2022-07-04T09:05:25;4.05;;;1.10;;
44832;SDS011;30569;51.252;9.830;2022-07-04T09:07:52;2.75;;;0.80;;
44832;SDS011;30569;51.252;9.830;2022-07-04T09:10:19;5.10;;;1.08;;
44832;SDS011;30569;51.252;9.830;2022-07-04T09:12:45;3.33;;;1.00;;
44832;SDS011;30569;51.252;9.830;2022-07-04T09:15:11;2.58;;;0.82;;
44832;SDS011;30569;51.252;9.830;2022-07-04T09:17:36;3.40;;;1.10;;
44832;SDS011;30569;51.252;9.830;2022-07-04T09:20:18;4.28;;;1.00;;
44832;SDS011;30569;51.252;9.830;2022-07-04T09:22:46;3.90;;;1.10;;
44832;SDS011;30569;51.252;9.830;2022-07-04T09:25:12;3.80;;;1.00;;
44832;SDS011;30569;51.252;9.830;2022-07-04T09:27:40;2.47;;;0.98;;
44832;SDS011;30569;51.252;9.830;2022-07-04T09:30:09;5.07;;;1.15;;
44832;SDS011;30569;51.252;9.830;2022-07-04T09:32:37;5.25;;;1.10;;
44832;SDS011;30569;51.252;9.830;2022-07-04T09:35:08;7.57;;;1.00;;
44832;SDS011;30569;51.252;9.830;2022-07-04T09:37:46;3.72;;;1.10;;
44832;SDS011;30569;51.252;9.830;2022-07-04T09:42:47;5.53;;;1.20;;
44832;SDS011;30569;51.252;9.830;2022-07-04T09:45:13;5.65;;;1.10;;
44832;SDS011;30569;51.252;9.830;2022-07-04T09:47:40;3.83;;;1.20;;
44832;SDS011;30569;51.252;9.830;2022-07-04T09:52:32;7.32;;;1.10;;
44832;SDS011;30569;51.252;9.830;2022-07-04T09:55:09;5.63;;;1.02;;
44832;SDS011;30569;51.252;9.830;2022-07-04T09:57:34;4.68;;;1.10;;
44832;SDS011;30569;51.252;9.830;2022-07-04T10:03:17;4.65;;;1.17;;
44832;SDS011;30569;51.252;9.830;2022-07-04T10:05:46;2.78;;;0.95;;
44832;SDS011;30569;51.252;9.830;2022-07-04T10:08:16;3.72;;;1.10;;
44832;SDS011;30569;51.252;9.830;2022-07-04T10:10:44;4.95;;;1.00;;
44832;SDS011;30569;51.252;9.830;2022-07-04T10:13:10;3.85;;;0.93;;
44832;SDS011;30569;51.252;9.830;2022-07-04T10:15:38;2.75;;;1.10;;
44832;SDS011;30569;51.252;9.830;2022-07-04T10:18:06;4.60;;;1.10;;
44832;SDS011;30569;51.252;9.830;2022-07-04T10:20:33;4.43;;;1.00;;
44832;SDS011;30569;51.252;9.830;2022-07-04T10:23:00;5.72;;;1.30;;
44832;SDS011;30569;51.252;9.830;2022-07-04T10:25:26;7.50;;;1.25;;
44832;SDS011;30569;51.252;9.830;2022-07-04T10:27:52;4.90;;;1.70;;
44832;SDS011;30569;51.252;9.830;2022-07-04T10:30:22;2.70;;;0.98;;
44832;SDS011;30569;51.252;9.830;2022-07-04T10:32:55;4.40;;;1.20;;
44832;SDS011;30569;51.252;9.830;2022-07-04T10:35:46;4.80;;;1.38;;
44832;SDS011;30569;51.252;9.830;2022-07-04T10:38:13;3.45;;;1.13;;
44832;SDS011;30569;51.252;9.830;2022-07-04T10:40:46;7.22;;;1.17;;
44832;SDS011;30569;51.252;9.830;2022-07-04T10:48:31;3.67;;;1.30;;
44832;SDS011;30569;51.252;9.830;2022-07-04T10:51:00;3.63;;;1.33;;
44832;SDS011;30569;51.252;9.830;2022-07-04T10:53:30;4.63;;;1.20;;
44832;SDS011;30569;51.252;9.830;2022-07-04T10:58:44;5.53;;;1.23;;
44832;SDS011;30569;51.252;9.830;2022-07-04T11:01:11;6.53;;;1.67;;
44832;SDS011;30569;51.252;9.830;2022-07-04T11:04:11;4.15;;;1.45;;
44832;SDS011;30569;51.252;9.830;2022-07-04T11:09:17;3.97;;;1.20;;
44832;SDS011;30569;51.252;9.830;2022-07-04T11:12:02;6.03;;;1.20;;
44832;SDS011;30569;51.252;9.830;2022-07-04T11:14:42;4.30;;;1.45;;
44832;SDS011;30569;51.252;9.830;2022-07-04T11:17:26;3.80;;;1.40;;
44832;SDS011;30569;51.252;9.830;2022-07-04T11:20:01;3.17;;;1.42;;
44832;SDS011;30569;51.252;9.830;2022-07-04T11:22:28;3.40;;;1.60;;
44832;SDS011;30569;51.252;9.830;2022-07-04T11:24:54;3.97;;;1.58;;
44832;SDS011;30569;51.252;9.830;2022-07-04T11:27:21;4.13;;;1.55;;
44832;SDS011;30569;51.252;9.830;2022-07-04T11:29:54;3.88;;;1.50;;
44832;SDS011;30569;51.252;9.830;2022-07-04T11:32:20;4.53;;;1.58;;
44832;SDS011;30569;51.252;9.830;2022-07-04T11:34:54;4.20;;;1.40;;
44832;SDS011;30569;51.252;9.830;2022-07-04T11:37:20;5.65;;;1.80;;
44832;SDS011;30569;51.252;9.830;2022-07-04T11:39:50;3.97;;;1.65;;
44832;SDS011;30569;51.252;9.830;2022-07-04T11:42:16;3.42;;;1.40;;
44832;SDS011;30569;51.252;9.830;2022-07-04T11:45:00;4.22;;;1.50;;
44832;SDS011;30569;51.252;9.830;2022-07-04T11:47:34;3.67;;;1.40;;
44832;SDS011;30569;51.252;9.830;2022-07-04T11:50:01;5.88;;;1.90;;
44832;SDS011;30569;51.252;9.830;2022-07-04T11:52:29;3.85;;;1.60;;
44832;SDS011;30569;51.252;9.830;2022-07-04T11:55:16;5.97;;;1.70;;
44832;SDS011;30569;51.252;9.830;2022-07-04T11:57:46;3.38;;;1.45;;
44832;SDS011;30569;51.252;9.830;2022-07-04T12:00:16;3.33;;;1.35;;
44832;SDS011;30569;51.252;9.830;2022-07-04T12:02:44;3.58;;;1.40;;
44832;SDS011;30569;51.252;9.830;2022-07-04T12:05:11;3.75;;;1.40;;
44832;SDS011;30569;51.252;9.830;2022-07-04T12:07:39;3.85;;;1.48;;
44832;SDS011;30569;51.252;9.830;2022-07-04T12:10:07;4.28;;;1.42;;
44832;SDS011;30569;51.252;9.830;2022-07-04T12:15:44;3.67;;;1.40;;
44832;SDS011;30569;51.252;9.830;2022-07-04T12:18:17;2.97;;;1.40;;
44832;SDS011;30569;51.252;9.830;2022-07-04T12:20:45;6.90;;;1.40;;
44832;SDS011;30569;51.252;9.830;2022-07-04T12:23:12;3.92;;;1.45;;
44832;SDS011;30569;51.252;9.830;2022-07-04T12:25:38;4.20;;;1.30;;
44832;SDS011;30569;51.252;9.830;2022-07-04T12:30:32;3.58;;;1.17;;
44832;SDS011;30569;51.252;9.830;2022-07-04T12:33:00;2.50;;;1.15;;
44832;SDS011;30569;51.252;9.830;2022-07-04T12:35:46;4.38;;;1.20;;
44832;SDS011;30569;51.252;9.830;2022-07-04T12:38:33;2.70;;;1.08;;
44832;SDS011;30569;51.252;9.830;2022-07-04T12:41:01;3.20;;;1.25;;
44832;SDS011;30569;51.252;9.830;2022-07-04T12:46:10;3.97;;;1.20;;
44832;SDS011;30569;51.252;9.830;2022-07-04T12:48:36;3.75;;;1.23;;
44832;SDS011;30569;51.252;9.830;2022-07-04T12:53:41;3.20;;;1.20;;
44832;SDS011;30569;51.252;9.830;2022-07-04T12:56:09;3.17;;;1.10;;
44832;SDS011;30569;51.252;9.830;2022-07-04T12:58:35;4.45;;;1.15;;
44832;SDS011;30569;51.252;9.830;2022-07-04T13:01:01;2.60;;;0.95;;
44832;SDS011;30569;51.252;9.830;2022-07-04T13:03:27;3.90;;;1.10;;
44832;SDS011;30569;51.252;9.830;2022-07-04T13:05:53;3.17;;;1.30;;
44832;SDS011;30569;51.252;9.830;2022-07-04T13:08:22;3.30;;;1.20;;
44832;SDS011;30569;51.252;9.830;2022-07-04T13:10:47;4.15;;;1.10;;
44832;SDS011;30569;51.252;9.830;2022-07-04T13:13:13;2.65;;;0.98;;
44832;SDS011;30569;51.252;9.830;2022-07-04T13:15:38;2.40;;;1.00;;
44832;SDS011;30569;51.252;9.830;2022-07-04T13:18:04;2.47;;;0.95;;
44832;SDS011;30569;51.252;9.830;2022-07-04T13:20:30;4.07;;;1.00;;
44832;SDS011;30569;51.252;9.830;2022-07-04T13:22:55;4.75;;;1.10;;
44832;SDS011;30569;51.252;9.830;2022-07-04T13:25:21;2.65;;;1.00;;
44832;SDS011;30569;51.252;9.830;2022-07-04T13:27:47;2.53;;;0.90;;
44832;SDS011;30569;51.252;9.830;2022-07-04T13:30:13;2.30;;;0.90;;
44832;SDS011;30569;51.252;9.830;2022-07-04T13:32:38;5.60;;;1.17;;
44832;SDS011;30569;51.252;9.830;2022-07-04T13:35:04;2.58;;;0.98;;
44832;SDS011;30569;51.252;9.830;2022-07-04T13:37:30;1.80;;;0.75;;
44832;SDS011;30569;51.252;9.830;2022-07-04T13:39:56;4.75;;;0.90;;
44832;SDS011;30569;51.252;9.830;2022-07-04T13:42:21;2.08;;;0.90;;
44832;SDS011;30569;51.252;9.830;2022-07-04T13:45:06;1.92;;;0.80;;
44832;SDS011;30569;51.252;9.830;2022-07-04T13:47:33;2.47;;;0.85;;
44832;SDS011;30569;51.252;9.830;2022-07-04T13:49:59;2.38;;;0.93;;
44832;SDS011;30569;51.252;9.830;2022-07-04T13:52:25;3.80;;;1.00;;
44832;SDS011;30569;51.252;9.830;2022-07-04T13:54:51;4.13;;;0.90;;
44832;SDS011;30569;51.252;9.830;2022-07-04T13:57:16;5.55;;;1.00;;
44832;SDS011;30569;51.252;9.830;2022-07-04T13:59:42;4.47;;;0.93;;
44832;SDS011;30569;51.252;9.830;2022-07-04T14:02:08;4.15;;;1.00;;
44832;SDS011;30569;51.252;9.830;2022-07-04T14:04:33;2.90;;;0.98;;
44832;SDS011;30569;51.252;9.830;2022-07-04T14:06:59;2.80;;;0.85;;
44832;SDS011;30569;51.252;9.830;2022-07-04T14:09:25;2.38;;;1.00;;
44832;SDS011;30569;51.252;9.830;2022-07-04T14:11:51;3.90;;;0.85;;
44832;SDS011;30569;51.252;9.830;2022-07-04T14:14:16;2.47;;;0.90;;
44832;SDS011;30569;51.252;9.830;2022-07-04T14:16:42;2.67;;;0.80;;
44832;SDS011;30569;51.252;9.830;2022-07-04T14:19:07;2.72;;;0.90;;
44832;SDS011;30569;51.252;9.830;2022-07-04T14:21:33;1.98;;;0.90;;
44832;SDS011;30569;51.252;9.830;2022-07-04T14:23:58;8.35;;;0.90;;
44832;SDS011;30569;51.252;9.830;2022-07-04T14:26:24;2.65;;;0.82;;
44832;SDS011;30569;51.252;9.830;2022-07-04T14:28:50;3.17;;;0.90;;
44832;SDS011;30569;51.252;9.830;2022-07-04T14:31:15;5.40;;;1.40;;
44832;SDS011;30569;51.252;9.830;2022-07-04T14:33:41;4.78;;;1.00;;
44832;SDS011;30569;51.252;9.830;2022-07-04T14:36:07;9.25;;;1.00;;
44832;SDS011;30569;51.252;9.830;2022-07-04T14:38:33;3.00;;;1.08;;
44832;SDS011;30569;51.252;9.830;2022-07-04T14:40:59;4.32;;;0.70;;
44832;SDS011;30569;51.252;9.830;2022-07-04T14:43:40;2.78;;;0.90;;
44832;SDS011;30569;51.252;9.830;2022-07-04T14:46:09;4.03;;;0.80;;
44832;SDS011;30569;51.252;9.830;2022-07-04T14:48:36;2.08;;;0.70;;
44832;SDS011;30569;51.252;9.830;2022-07-04T14:51:02;4.25;;;1.10;;
44832;SDS011;30569;51.252;9.830;2022-07-04T14:53:28;3.10;;;0.98;;
44832;SDS011;30569;51.252;9.830;2022-07-04T14:55:54;4.78;;;1.08;;
44832;SDS011;30569;51.252;9.830;2022-07-04T14:58:19;2.97;;;0.90;;
44832;SDS011;30569;51.252;9.830;2022-07-04T15:00:45;3.92;;;0.88;;
44832;SDS011;30569;51.252;9.830;2022-07-04T15:03:11;3.30;;;0.90;;
44832;SDS011;30569;51.252;9.830;2022-07-04T15:05:36;1.75;;;0.73;;
44832;SDS011;30569;51.252;9.830;2022-07-04T15:08:02;2.35;;;0.88;;
44832;SDS011;30569;51.252;9.830;2022-07-04T15:10:28;1.67;;;0.77;;
44832;SDS011;30569;51.252;9.830;2022-07-04T15:12:53;26.98;;;2.03;;
44832;SDS011;30569;51.252;9.830;2022-07-04T15:15:19;2.50;;;0.73;;
44832;SDS011;30569;51.252;9.830;2022-07-04T15:17:45;8.50;;;0.95;;